createdAt,value
2022-09-22T00:00:43.228Z,61.38
2022-09-22T00:03:10.082Z,61.57
2022-09-22T00:05:36.506Z,61.47
2022-09-22T00:08:02.845Z,61.60
2022-09-22T00:10:29.255Z,61.53
2022-09-22T00:12:55.815Z,61.92
2022-09-22T00:15:22.345Z,61.68
2022-09-22T00:17:48.863Z,61.85
2022-09-22T00:20:15.955Z,61.67
2022-09-22T00:22:42.406Z,62.04
2022-09-22T00:25:09.446Z,61.72
2022-09-22T00:27:35.824Z,61.68
2022-09-22T00:30:02.222Z,61.58
2022-09-22T00:32:28.587Z,61.70
2022-09-22T00:34:54.939Z,61.96
2022-09-22T00:37:21.298Z,61.93
2022-09-22T00:39:47.685Z,62.06
2022-09-22T00:42:14.134Z,62.35
2022-09-22T00:44:44.383Z,62.15
2022-09-22T00:47:19.743Z,62.18
2022-09-22T00:49:49.172Z,62.14
2022-09-22T00:52:20.217Z,62.10
2022-09-22T00:54:48.115Z,62.15
2022-09-22T00:57:20.487Z,62.32
2022-09-22T00:59:49.418Z,62.15
2022-09-22T01:02:15.954Z,62.43
2022-09-22T01:04:42.724Z,62.42
2022-09-22T01:07:11.069Z,62.22
2022-09-22T01:09:38.219Z,62.27
2022-09-22T01:12:05.338Z,62.40
2022-09-22T01:15:05.527Z,62.28
2022-09-22T01:17:51.992Z,62.36
2022-09-22T01:20:40.687Z,62.27
2022-09-22T01:23:24.146Z,62.38
2022-09-22T01:26:15.137Z,62.03
2022-09-22T01:28:47.979Z,62.25
2022-09-22T01:31:43.630Z,62.45
2022-09-22T01:34:34.730Z,62.57
2022-09-22T01:37:17.179Z,62.31
2022-09-22T01:39:51.963Z,62.53
2022-09-22T01:42:25.657Z,62.51
2022-09-22T01:45:01.415Z,62.44
2022-09-22T01:47:53.339Z,62.94
2022-09-22T01:50:32.538Z,62.66
2022-09-22T01:53:03.645Z,62.85
2022-09-22T01:55:38.472Z,62.95
2022-09-22T01:58:13.283Z,62.69
2022-09-22T02:00:44.359Z,63.13
2022-09-22T02:03:19.236Z,62.85
2022-09-22T02:05:53.492Z,62.53
2022-09-22T02:08:27.656Z,62.75
2022-09-22T02:10:58.805Z,63.09
2022-09-22T02:13:25.666Z,62.99
2022-09-22T02:16:01.560Z,63.23
2022-09-22T02:18:35.930Z,63.26
2022-09-22T02:21:03.747Z,63.35
2022-09-22T02:23:32.118Z,63.60
2022-09-22T02:26:02.123Z,63.45
2022-09-22T02:28:32.519Z,63.59
2022-09-22T02:31:19.511Z,63.44
2022-09-22T02:33:48.727Z,63.05
2022-09-22T02:36:28.814Z,62.94
2022-09-22T02:39:06.310Z,63.17
2022-09-22T02:41:44.777Z,62.88
2022-09-22T02:44:20.797Z,62.98
2022-09-22T02:47:00.865Z,63.11
2022-09-22T02:49:28.438Z,63.21
2022-09-22T02:51:54.948Z,63.46
2022-09-22T02:54:22.859Z,63.53
2022-09-22T02:56:49.222Z,63.85
2022-09-22T02:59:15.563Z,63.96
2022-09-22T03:01:42.200Z,63.92
2022-09-22T03:04:08.608Z,63.89
2022-09-22T03:06:34.942Z,63.90
2022-09-22T03:09:01.324Z,63.86
2022-09-22T03:11:27.656Z,63.77
2022-09-22T03:13:54.525Z,63.48
2022-09-22T03:16:20.996Z,63.30
2022-09-22T03:18:47.384Z,63.67
2022-09-22T03:21:13.807Z,63.70
2022-09-22T03:23:40.195Z,63.99
2022-09-22T03:26:06.576Z,63.73
2022-09-22T03:28:32.990Z,63.89
2022-09-22T03:30:59.426Z,63.65
2022-09-22T03:33:25.805Z,63.87
2022-09-22T03:35:52.142Z,63.90
2022-09-22T03:38:18.484Z,63.48
2022-09-22T03:40:52.701Z,63.43
2022-09-22T03:43:20.186Z,63.54
2022-09-22T03:45:46.892Z,63.90
2022-09-22T03:48:13.539Z,63.76
2022-09-22T03:50:39.990Z,63.86
2022-09-22T03:53:06.411Z,63.85
2022-09-22T03:55:32.775Z,63.95
2022-09-22T03:57:59.349Z,64.23
2022-09-22T04:00:26.057Z,63.87
2022-09-22T04:02:52.915Z,64.17
2022-09-22T04:05:19.285Z,64.21
2022-09-22T04:07:45.662Z,64.25
2022-09-22T04:10:12.075Z,64.03
2022-09-22T04:12:38.428Z,64.06
2022-09-22T04:15:05.380Z,63.92
2022-09-22T04:17:31.743Z,63.86
2022-09-22T04:19:58.231Z,64.22
2022-09-22T04:22:24.781Z,63.83
2022-09-22T04:24:51.122Z,63.82
2022-09-22T04:27:20.344Z,64.18
2022-09-22T04:29:47.652Z,64.57
2022-09-22T04:32:14.460Z,64.25
2022-09-22T04:34:40.900Z,64.15
2022-09-22T04:37:07.270Z,64.46
2022-09-22T04:39:33.700Z,64.48
2022-09-22T04:42:00.106Z,64.40
2022-09-22T04:44:26.566Z,64.35
2022-09-22T04:46:53.032Z,64.68
2022-09-22T04:49:19.640Z,64.48
2022-09-22T04:51:45.999Z,64.15
2022-09-22T04:54:14.240Z,64.55
2022-09-22T04:56:41.820Z,64.25
2022-09-22T04:59:08.337Z,64.68
2022-09-22T05:01:36.473Z,64.42
2022-09-22T05:04:03.244Z,64.35
2022-09-22T05:06:29.670Z,64.36
2022-09-22T05:08:56.641Z,64.70
2022-09-22T05:11:24.288Z,64.65
2022-09-22T05:13:50.897Z,64.38
2022-09-22T05:16:18.211Z,64.54
2022-09-22T05:18:44.750Z,64.87
2022-09-22T05:21:11.241Z,64.40
2022-09-22T05:23:37.682Z,64.52
2022-09-22T05:26:04.096Z,64.25
2022-09-22T05:28:30.922Z,64.57
2022-09-22T05:30:57.262Z,64.44
2022-09-22T05:33:23.615Z,64.59
2022-09-22T05:35:50.001Z,64.85
2022-09-22T05:38:16.362Z,65.37
2022-09-22T05:40:45.351Z,65.11
2022-09-22T05:43:11.685Z,65.06
2022-09-22T05:45:38.043Z,65.35
2022-09-22T05:48:04.822Z,65.70
2022-09-22T05:50:31.255Z,65.41
2022-09-22T05:53:05.454Z,65.33
2022-09-22T05:55:32.453Z,65.78
2022-09-22T05:58:00.098Z,65.79
2022-09-22T06:00:27.410Z,66.08
2022-09-22T06:02:54.423Z,65.94
2022-09-22T06:05:21.256Z,66.18
2022-09-22T06:07:49.004Z,66.48
2022-09-22T06:10:15.451Z,66.18
2022-09-22T06:12:41.808Z,66.38
2022-09-22T06:15:08.463Z,66.80
2022-09-22T06:17:34.872Z,66.53
2022-09-22T06:20:01.529Z,66.98
2022-09-22T06:22:27.919Z,67.08
2022-09-22T06:24:54.305Z,67.33
2022-09-22T06:27:20.771Z,67.52
2022-09-22T06:29:47.145Z,67.29
2022-09-22T06:32:13.677Z,67.44
2022-09-22T06:34:40.041Z,67.60
2022-09-22T06:37:09.218Z,67.35
2022-09-22T06:39:38.409Z,67.71
2022-09-22T06:42:05.728Z,68.22
2022-09-22T06:44:32.228Z,67.68
2022-09-22T06:46:58.874Z,67.90
2022-09-22T06:49:26.274Z,67.97
2022-09-22T06:51:52.736Z,67.94
2022-09-22T06:54:21.183Z,67.91
2022-09-22T06:56:49.407Z,67.83
2022-09-22T06:59:16.734Z,68.03
2022-09-22T07:01:45.094Z,67.83
2022-09-22T07:04:12.135Z,67.88
2022-09-22T07:06:40.435Z,68.06
2022-09-22T07:09:07.841Z,67.85
2022-09-22T07:11:39.544Z,67.98
2022-09-22T07:14:06.626Z,68.10
2022-09-22T07:16:33.030Z,68.05
2022-09-22T07:18:59.543Z,67.92
2022-09-22T07:21:30.393Z,67.89
2022-09-22T07:23:57.602Z,67.56
2022-09-22T07:26:32.528Z,67.56
2022-09-22T07:29:01.301Z,67.27
2022-09-22T07:31:29.561Z,66.93
2022-09-22T07:33:56.668Z,66.65
2022-09-22T07:36:26.148Z,66.66
2022-09-22T07:38:54.548Z,66.40
2022-09-22T07:41:27.535Z,66.45
2022-09-22T07:43:56.204Z,65.80
2022-09-22T07:46:23.732Z,65.93
2022-09-22T07:48:50.198Z,65.68
2022-09-22T07:51:24.603Z,65.45
2022-09-22T07:54:07.331Z,64.95
2022-09-22T07:56:35.369Z,64.42
2022-09-22T07:59:10.103Z,64.26
2022-09-22T08:01:39.565Z,63.85
2022-09-22T08:04:06.026Z,63.22
2022-09-22T08:06:33.298Z,63.18
2022-09-22T08:09:00.169Z,63.03
2022-09-22T08:11:28.777Z,63.13
2022-09-22T08:13:59.906Z,62.24
2022-09-22T08:16:32.635Z,62.03
2022-09-22T08:19:03.773Z,61.76
2022-09-22T08:21:35.317Z,60.95
2022-09-22T08:24:03.053Z,60.78
2022-09-22T08:26:29.471Z,60.41
2022-09-22T08:28:56.745Z,59.89
2022-09-22T08:31:25.410Z,60.05
2022-09-22T08:33:53.948Z,59.60
2022-09-22T08:36:22.085Z,59.47
2022-09-22T08:38:49.293Z,59.13
2022-09-22T08:41:31.900Z,58.96
2022-09-22T08:44:03.069Z,59.10
2022-09-22T08:46:47.067Z,58.77
2022-09-22T08:49:50.258Z,58.70
2022-09-22T08:52:30.897Z,58.18
2022-09-22T08:54:59.726Z,57.98
2022-09-22T08:57:47.438Z,57.97
2022-09-22T09:00:17.271Z,57.41
2022-09-22T09:03:19.434Z,57.44
2022-09-22T09:06:12.712Z,57.29
2022-09-22T09:09:10.194Z,57.05
2022-09-22T09:11:55.308Z,56.71
2022-09-22T09:14:36.215Z,56.92
2022-09-22T09:17:12.579Z,55.90
2022-09-22T09:19:45.566Z,56.03
2022-09-22T09:22:25.158Z,55.75
2022-09-22T09:27:58.183Z,55.78
2022-09-22T09:30:24.537Z,54.12
2022-09-22T09:33:01.058Z,54.54
2022-09-22T09:35:44.160Z,54.64
2022-09-22T09:38:26.239Z,54.81
2022-09-22T09:41:18.661Z,54.35
2022-09-22T09:43:45.513Z,53.58
2022-09-22T09:46:34.390Z,53.75
2022-09-22T09:49:14.370Z,53.72
2022-09-22T09:51:47.643Z,53.36
2022-09-22T09:54:17.582Z,53.08
2022-09-22T09:57:06.355Z,53.21
2022-09-22T09:59:52.306Z,52.38
2022-09-22T10:02:30.322Z,53.31
2022-09-22T10:05:01.025Z,51.88
2022-09-22T10:10:32.736Z,52.23
2022-09-22T10:13:05.220Z,51.30
2022-09-22T10:15:34.579Z,50.33
2022-09-22T10:18:01.685Z,50.25
2022-09-22T10:20:31.546Z,50.28
2022-09-22T10:23:21.208Z,50.63
2022-09-22T10:25:49.528Z,49.56
2022-09-22T10:28:17.487Z,49.51
2022-09-22T10:30:45.171Z,49.47
2022-09-22T10:33:20.382Z,49.40
2022-09-22T10:36:09.405Z,49.11
2022-09-22T10:38:40.878Z,49.19
2022-09-22T10:41:11.834Z,48.80
2022-09-22T10:43:43.257Z,49.19
2022-09-22T10:46:12.738Z,48.78
2022-09-22T10:48:54.686Z,48.50
2022-09-22T10:51:54.914Z,48.60
2022-09-22T10:54:57.202Z,48.13
2022-09-22T10:57:37.957Z,48.30
2022-09-22T11:00:16.510Z,47.41
2022-09-22T11:03:04.830Z,47.61
2022-09-22T11:06:15.235Z,47.92
2022-09-22T11:09:09.068Z,46.59
2022-09-22T11:12:14.998Z,47.32
2022-09-22T11:15:07.680Z,47.36
2022-09-22T11:17:45.453Z,46.51
2022-09-22T11:20:38.967Z,46.68
2022-09-22T11:23:24.063Z,45.79
2022-09-22T11:26:32.537Z,46.60
2022-09-22T11:29:23.500Z,45.76
2022-09-22T11:32:36.286Z,45.92
2022-09-22T11:35:31.018Z,44.84
2022-09-22T11:38:15.602Z,45.01
2022-09-22T11:40:49.721Z,44.86
2022-09-22T11:43:55.731Z,44.71
2022-09-22T11:46:44.910Z,44.05
2022-09-22T11:49:45.022Z,44.64
2022-09-22T11:52:19.906Z,43.30
2022-09-22T11:55:18.467Z,43.67
2022-09-22T11:57:50.683Z,43.40
2022-09-22T12:00:20.141Z,43.16
2022-09-22T12:03:10.446Z,43.72
2022-09-22T12:05:48.403Z,43.55
2022-09-22T12:08:20.535Z,42.77
2022-09-22T12:10:48.449Z,41.94
2022-09-22T12:13:22.366Z,41.62
2022-09-22T12:16:10.059Z,42.73
2022-09-22T12:18:54.835Z,40.47
2022-09-22T12:21:57.818Z,41.67
2022-09-22T12:24:24.745Z,40.09
2022-09-22T12:26:51.588Z,39.57
2022-09-22T12:29:32.261Z,39.93
2022-09-22T12:31:59.838Z,38.96
2022-09-22T12:34:29.427Z,38.75
2022-09-22T12:36:59.901Z,39.34
2022-09-22T12:39:29.533Z,39.56
2022-09-22T12:41:59.762Z,39.38
2022-09-22T12:44:31.504Z,39.08
2022-09-22T12:47:02.525Z,38.99
2022-09-22T12:49:28.973Z,39.03
2022-09-22T12:51:55.385Z,38.47
2022-09-22T12:54:21.644Z,38.18
2022-09-22T12:57:01.801Z,39.64
2022-09-22T12:59:40.315Z,38.79
2022-09-22T13:02:16.146Z,38.67
2022-09-22T13:05:03.536Z,41.71
2022-09-22T13:07:37.942Z,39.47
2022-09-22T13:10:25.323Z,39.69
2022-09-22T13:13:00.960Z,39.65
2022-09-22T13:15:31.998Z,38.26
2022-09-22T13:17:58.844Z,38.00
2022-09-22T13:20:27.915Z,38.85
2022-09-22T13:22:55.265Z,37.94
2022-09-22T13:25:29.968Z,38.47
2022-09-22T13:28:03.510Z,38.63
2022-09-22T13:30:29.929Z,37.99
2022-09-22T13:32:56.302Z,38.36
2022-09-22T13:35:28.094Z,38.33
2022-09-22T13:37:56.767Z,38.42
2022-09-22T13:40:27.188Z,38.43
2022-09-22T13:42:57.821Z,37.89
2022-09-22T13:45:27.355Z,37.86
2022-09-22T13:48:02.680Z,37.77
2022-09-22T13:50:32.609Z,37.52
2022-09-22T13:53:00.149Z,38.05
2022-09-22T13:55:34.691Z,38.00
2022-09-22T13:58:03.242Z,37.59
2022-09-22T14:01:08.651Z,38.03
2022-09-22T14:03:36.137Z,38.27
2022-09-22T14:06:02.982Z,37.48
2022-09-22T14:08:31.834Z,38.00
2022-09-22T14:10:59.617Z,37.42
2022-09-22T14:13:43.723Z,38.21
2022-09-22T14:16:20.129Z,37.01
2022-09-22T14:18:49.098Z,37.12
2022-09-22T14:21:16.203Z,36.52
2022-09-22T14:23:46.085Z,37.27
2022-09-22T14:26:27.071Z,36.77
2022-09-22T14:28:56.443Z,36.56
2022-09-22T14:31:29.268Z,36.64
2022-09-22T14:33:56.625Z,36.05
2022-09-22T14:36:25.850Z,36.15
2022-09-22T14:39:09.765Z,36.66
2022-09-22T14:41:37.772Z,36.33
2022-09-22T14:44:39.463Z,36.70
2022-09-22T14:47:29.971Z,37.24
2022-09-22T14:50:19.966Z,36.26
2022-09-22T14:53:06.727Z,35.77
2022-09-22T14:55:39.288Z,36.31
2022-09-22T14:58:14.387Z,35.49
2022-09-22T15:01:10.429Z,35.82
2022-09-22T15:03:38.792Z,35.46
2022-09-22T15:06:10.498Z,35.39
2022-09-22T15:08:37.299Z,35.57
2022-09-22T15:11:07.015Z,35.43
2022-09-22T15:13:45.401Z,35.73
2022-09-22T15:16:37.912Z,36.21
2022-09-22T15:19:05.370Z,35.34
2022-09-22T15:21:37.276Z,35.47
2022-09-22T15:24:06.578Z,35.41
2022-09-22T15:26:33.451Z,35.22
2022-09-22T15:29:01.207Z,35.06
2022-09-22T15:31:29.407Z,35.44
2022-09-22T15:33:59.962Z,34.92
2022-09-22T15:36:31.841Z,35.09
2022-09-22T15:39:16.090Z,35.71
2022-09-22T15:41:42.490Z,35.40
2022-09-22T15:44:09.083Z,35.00
2022-09-22T15:46:37.621Z,34.85
2022-09-22T15:49:09.106Z,35.15
2022-09-22T15:51:35.659Z,35.02
2022-09-22T15:54:02.335Z,36.14
2022-09-22T15:56:30.393Z,35.63
2022-09-22T15:59:01.165Z,36.11
2022-09-22T16:01:29.356Z,36.26
2022-09-22T16:04:00.139Z,36.16
2022-09-22T16:06:32.898Z,36.24
2022-09-22T16:08:59.313Z,35.65
2022-09-22T16:11:29.560Z,35.10
2022-09-22T16:14:03.839Z,35.34
2022-09-22T16:16:32.235Z,35.60
2022-09-22T16:18:59.776Z,35.65
2022-09-22T16:21:34.909Z,35.61
2022-09-22T16:24:08.562Z,36.13
2022-09-22T16:26:39.999Z,35.84
2022-09-22T16:29:07.681Z,35.47
2022-09-22T16:31:37.522Z,35.20
2022-09-22T16:34:05.197Z,35.44
2022-09-22T16:36:34.105Z,35.73
2022-09-22T16:39:01.840Z,35.32
2022-09-22T16:41:30.187Z,35.95
2022-09-22T16:43:57.640Z,35.81
2022-09-22T16:46:28.847Z,36.06
2022-09-22T16:48:56.582Z,36.68
2022-09-22T16:51:22.925Z,36.41
2022-09-22T16:53:55.257Z,36.88
2022-09-22T16:56:26.762Z,37.15
2022-09-22T16:58:54.135Z,37.47
2022-09-22T17:01:20.803Z,37.79
2022-09-22T17:03:49.485Z,37.73
2022-09-22T17:06:18.204Z,38.02
2022-09-22T17:08:45.685Z,37.83
2022-09-22T17:11:13.655Z,38.06
2022-09-22T17:13:43.222Z,38.16
2022-09-22T17:16:25.115Z,38.31
2022-09-22T17:18:52.644Z,38.13
2022-09-22T17:21:21.849Z,38.81
2022-09-22T17:23:50.235Z,38.62
2022-09-22T17:26:18.282Z,38.72
2022-09-22T17:28:44.751Z,39.03
2022-09-22T17:31:11.119Z,38.87
2022-09-22T17:33:52.104Z,39.48
2022-09-22T17:36:21.045Z,40.05
2022-09-22T17:38:50.667Z,39.90
2022-09-22T17:41:21.951Z,40.21
2022-09-22T17:43:55.750Z,40.40
2022-09-22T17:46:22.478Z,40.55
2022-09-22T17:49:07.670Z,41.45
2022-09-22T17:52:08.749Z,41.83
2022-09-22T17:54:58.751Z,42.22
2022-09-22T17:57:30.502Z,41.82
2022-09-22T17:59:58.230Z,41.97
2022-09-22T18:02:32.456Z,42.31
2022-09-22T18:04:58.935Z,42.50
2022-09-22T18:07:26.998Z,43.24
2022-09-22T18:09:56.703Z,43.54
2022-09-22T18:12:24.829Z,44.04
2022-09-22T18:14:55.431Z,44.01
2022-09-22T18:17:24.719Z,43.70
2022-09-22T18:19:54.629Z,43.73
2022-09-22T18:22:22.122Z,43.99
2022-09-22T18:24:49.847Z,44.37
2022-09-22T18:27:19.430Z,44.44
2022-09-22T18:29:49.862Z,44.72
2022-09-22T18:32:17.773Z,45.02
2022-09-22T18:34:44.668Z,44.85
2022-09-22T18:37:11.132Z,45.30
2022-09-22T18:39:41.678Z,45.87
2022-09-22T18:42:12.424Z,45.82
2022-09-22T18:44:39.971Z,46.04
2022-09-22T18:47:08.463Z,46.27
2022-09-22T18:49:37.631Z,46.25
2022-09-22T18:52:07.651Z,46.63
2022-09-22T18:54:35.234Z,46.89
2022-09-22T18:57:03.533Z,47.08
2022-09-22T18:59:29.979Z,47.29
2022-09-22T19:01:56.964Z,47.33
2022-09-22T19:04:26.577Z,47.69
2022-09-22T19:07:13.503Z,47.39
2022-09-22T19:09:40.261Z,47.74
2022-09-22T19:12:08.114Z,48.09
2022-09-22T19:14:39.219Z,48.20
2022-09-22T19:17:07.554Z,48.63
2022-09-22T19:19:36.523Z,48.52
2022-09-22T19:22:08.301Z,48.91
2022-09-22T19:24:36.083Z,49.04
2022-09-22T19:27:04.580Z,49.11
2022-09-22T19:29:32.032Z,49.09
2022-09-22T19:31:59.078Z,49.52
2022-09-22T19:34:25.838Z,49.36
2022-09-22T19:36:52.534Z,49.80
2022-09-22T19:39:18.897Z,49.43
2022-09-22T19:41:48.164Z,49.69
2022-09-22T19:44:16.166Z,50.05
2022-09-22T19:46:43.742Z,49.62
2022-09-22T19:49:10.208Z,49.80
2022-09-22T19:51:36.592Z,50.06
2022-09-22T19:54:03.182Z,50.25
2022-09-22T19:56:29.507Z,50.21
2022-09-22T19:58:55.822Z,50.44
2022-09-22T20:01:31.222Z,50.15
2022-09-22T20:03:59.039Z,50.57
2022-09-22T20:06:26.946Z,50.65
2022-09-22T20:09:02.726Z,50.76
2022-09-22T20:11:38.602Z,50.70
2022-09-22T20:14:26.942Z,50.99
2022-09-22T20:17:02.684Z,50.91
2022-09-22T20:19:31.498Z,50.92
2022-09-22T20:22:26.133Z,51.05
2022-09-22T20:24:55.633Z,51.41
2022-09-22T20:27:40.976Z,51.44
2022-09-22T20:30:08.871Z,51.66
2022-09-22T20:32:35.259Z,51.71
2022-09-22T20:35:01.697Z,51.96
2022-09-22T20:37:28.281Z,51.86
2022-09-22T20:39:56.012Z,52.06
2022-09-22T20:42:23.181Z,51.71
2022-09-22T20:44:49.672Z,52.11
2022-09-22T20:47:18.921Z,52.07
2022-09-22T20:49:50.626Z,52.69
2022-09-22T20:52:19.852Z,52.53
2022-09-22T20:54:46.492Z,52.40
2022-09-22T20:57:14.008Z,52.29
2022-09-22T20:59:40.443Z,52.67
2022-09-22T21:02:07.149Z,52.65
2022-09-22T21:04:33.798Z,52.96
2022-09-22T21:07:01.257Z,52.91
2022-09-22T21:09:46.282Z,53.01
2022-09-22T21:12:13.451Z,52.84
2022-09-22T21:14:42.796Z,53.20
2022-09-22T21:17:09.167Z,53.38
2022-09-22T21:19:36.449Z,53.19
2022-09-22T21:22:03.182Z,53.41
2022-09-22T21:24:31.310Z,53.52
2022-09-22T21:26:59.482Z,53.67
2022-09-22T21:29:26.005Z,53.82
2022-09-22T21:31:52.578Z,53.63
2022-09-22T21:34:18.986Z,53.81
2022-09-22T21:36:45.479Z,53.63
2022-09-22T21:39:12.127Z,53.86
2022-09-22T21:41:38.651Z,53.86
2022-09-22T21:44:05.797Z,54.08
2022-09-22T21:46:32.989Z,53.90
2022-09-22T21:49:02.052Z,53.62
2022-09-22T21:51:31.026Z,53.77
2022-09-22T21:53:57.370Z,53.76
2022-09-22T21:56:25.161Z,53.75
2022-09-22T21:58:54.146Z,53.79
2022-09-22T22:01:29.378Z,53.64
2022-09-22T22:03:57.766Z,53.63
2022-09-22T22:06:34.266Z,53.56
2022-09-22T22:09:12.492Z,53.61
2022-09-22T22:11:42.341Z,53.72
2022-09-22T22:14:10.666Z,53.69
2022-09-22T22:16:38.642Z,53.55
2022-09-22T22:19:06.323Z,54.15
2022-09-22T22:21:33.556Z,53.83
2022-09-22T22:24:18.568Z,53.93
2022-09-22T22:26:47.320Z,54.07
2022-09-22T22:29:14.118Z,54.16
2022-09-22T22:31:41.428Z,53.82
2022-09-22T22:34:13.220Z,54.01
2022-09-22T22:36:40.158Z,54.09
2022-09-22T22:39:06.970Z,54.27
2022-09-22T22:41:33.347Z,54.30
2022-09-22T22:44:01.755Z,54.41
2022-09-22T22:46:29.755Z,54.44
2022-09-22T22:48:57.098Z,54.60
2022-09-22T22:51:23.868Z,54.47
2022-09-22T22:53:51.727Z,54.70
2022-09-22T22:56:38.745Z,54.47
2022-09-22T22:59:08.187Z,54.71
2022-09-22T23:01:34.765Z,54.78
2022-09-22T23:04:06.913Z,54.67
2022-09-22T23:06:36.039Z,54.76
2022-09-22T23:09:04.184Z,54.94
2022-09-22T23:11:37.045Z,54.75
2022-09-22T23:14:06.091Z,54.94
2022-09-22T23:16:34.902Z,54.96
2022-09-22T23:19:07.138Z,55.03
2022-09-22T23:21:33.897Z,55.23
2022-09-22T23:24:01.134Z,55.25
2022-09-22T23:26:29.109Z,55.47
2022-09-22T23:28:55.890Z,55.54
2022-09-22T23:31:22.228Z,55.50
2022-09-22T23:33:50.629Z,55.48
2022-09-22T23:36:35.133Z,55.34
2022-09-22T23:39:03.776Z,55.65
2022-09-22T23:41:31.955Z,55.87
2022-09-22T23:43:58.441Z,55.75
2022-09-22T23:46:25.151Z,55.66
2022-09-22T23:48:51.643Z,55.96
2022-09-22T23:51:19.538Z,55.99
2022-09-22T23:53:45.951Z,55.78
2022-09-22T23:56:12.333Z,55.95
2022-09-22T23:58:38.940Z,56.13
